sensor_id;sensor_type;location;lat;lon;timestamp;P1;durP1;ratioP1;P2;durP2;ratioP2
75073;SDS011;63652;51.526;5.080;2023-02-07T00:02:18;8.60;;;3.30;;
75073;SDS011;63652;51.526;5.080;2023-02-07T00:04:44;11.65;;;4.85;;
75073;SDS011;63652;51.526;5.080;2023-02-07T00:07:09;8.60;;;4.30;;
75073;SDS011;63652;51.526;5.080;2023-02-07T00:09:35;11.77;;;4.30;;
75073;SDS011;63652;51.526;5.080;2023-02-07T00:12:01;9.70;;;4.45;;
75073;SDS011;63652;51.526;5.080;2023-02-07T00:14:28;10.95;;;4.25;;
75073;SDS011;63652;51.526;5.080;2023-02-07T00:16:53;9.23;;;3.95;;
75073;SDS011;63652;51.526;5.080;2023-02-07T00:19:18;9.88;;;4.53;;
75073;SDS011;63652;51.526;5.080;2023-02-07T00:21:45;8.60;;;4.32;;
75073;SDS011;63652;51.526;5.080;2023-02-07T00:24:11;7.57;;;4.72;;
75073;SDS011;63652;51.526;5.080;2023-02-07T00:26:36;9.18;;;5.13;;
75073;SDS011;63652;51.526;5.080;2023-02-07T00:29:02;8.10;;;4.30;;
75073;SDS011;63652;51.526;5.080;2023-02-07T00:31:31;14.95;;;5.32;;
75073;SDS011;63652;51.526;5.080;2023-02-07T00:33:59;10.75;;;4.90;;
75073;SDS011;63652;51.526;5.080;2023-02-07T00:36:26;15.73;;;6.00;;
75073;SDS011;63652;51.526;5.080;2023-02-07T00:38:59;11.48;;;5.07;;
75073;SDS011;63652;51.526;5.080;2023-02-07T00:41:27;15.20;;;5.13;;
75073;SDS011;63652;51.526;5.080;2023-02-07T00:43:53;8.63;;;4.53;;
75073;SDS011;63652;51.526;5.080;2023-02-07T00:46:18;10.30;;;4.18;;
75073;SDS011;63652;51.526;5.080;2023-02-07T00:48:44;10.20;;;4.03;;
75073;SDS011;63652;51.526;5.080;2023-02-07T00:51:10;10.45;;;4.93;;
75073;SDS011;63652;51.526;5.080;2023-02-07T00:53:37;13.85;;;5.70;;
75073;SDS011;63652;51.526;5.080;2023-02-07T00:56:03;10.95;;;4.57;;
75073;SDS011;63652;51.526;5.080;2023-02-07T00:58:29;8.60;;;4.60;;
75073;SDS011;63652;51.526;5.080;2023-02-07T01:00:54;8.85;;;4.40;;
75073;SDS011;63652;51.526;5.080;2023-02-07T01:03:19;7.93;;;5.43;;
75073;SDS011;63652;51.526;5.080;2023-02-07T01:05:45;12.25;;;4.75;;
75073;SDS011;63652;51.526;5.080;2023-02-07T01:08:11;10.13;;;5.22;;
75073;SDS011;63652;51.526;5.080;2023-02-07T01:10:40;13.40;;;5.35;;
75073;SDS011;63652;51.526;5.080;2023-02-07T01:13:06;10.10;;;5.18;;
75073;SDS011;63652;51.526;5.080;2023-02-07T01:15:35;11.70;;;5.28;;
75073;SDS011;63652;51.526;5.080;2023-02-07T01:18:01;14.20;;;6.07;;
75073;SDS011;63652;51.526;5.080;2023-02-07T01:20:27;14.05;;;5.68;;
75073;SDS011;63652;51.526;5.080;2023-02-07T01:22:53;15.65;;;6.43;;
75073;SDS011;63652;51.526;5.080;2023-02-07T01:25:18;12.32;;;5.95;;
75073;SDS011;63652;51.526;5.080;2023-02-07T01:27:43;10.00;;;5.45;;
75073;SDS011;63652;51.526;5.080;2023-02-07T01:30:09;12.85;;;5.85;;
75073;SDS011;63652;51.526;5.080;2023-02-07T01:32:35;12.85;;;5.75;;
75073;SDS011;63652;51.526;5.080;2023-02-07T01:35:00;12.95;;;5.10;;
75073;SDS011;63652;51.526;5.080;2023-02-07T01:37:26;11.07;;;6.03;;
75073;SDS011;63652;51.526;5.080;2023-02-07T01:39:51;12.95;;;5.82;;
75073;SDS011;63652;51.526;5.080;2023-02-07T01:42:16;11.05;;;6.00;;
75073;SDS011;63652;51.526;5.080;2023-02-07T01:47:16;18.52;;;5.85;;
75073;SDS011;63652;51.526;5.080;2023-02-07T01:49:43;14.48;;;5.50;;
75073;SDS011;63652;51.526;5.080;2023-02-07T01:52:10;12.60;;;5.93;;
75073;SDS011;63652;51.526;5.080;2023-02-07T01:54:38;16.05;;;5.63;;
75073;SDS011;63652;51.526;5.080;2023-02-07T01:57:05;19.52;;;6.78;;
75073;SDS011;63652;51.526;5.080;2023-02-07T01:59:33;14.25;;;6.30;;
75073;SDS011;63652;51.526;5.080;2023-02-07T02:02:00;11.55;;;6.05;;
75073;SDS011;63652;51.526;5.080;2023-02-07T02:04:27;11.45;;;6.15;;
75073;SDS011;63652;51.526;5.080;2023-02-07T02:06:53;14.63;;;6.53;;
75073;SDS011;63652;51.526;5.080;2023-02-07T02:09:19;20.08;;;7.07;;
75073;SDS011;63652;51.526;5.080;2023-02-07T02:14:39;14.18;;;6.57;;
75073;SDS011;63652;51.526;5.080;2023-02-07T02:17:20;17.45;;;7.78;;
75073;SDS011;63652;51.526;5.080;2023-02-07T02:34:03;15.88;;;6.88;;
75073;SDS011;63652;51.526;5.080;2023-02-07T02:39:08;21.85;;;7.65;;
75073;SDS011;63652;51.526;5.080;2023-02-07T02:41:41;22.13;;;7.38;;
75073;SDS011;63652;51.526;5.080;2023-02-07T02:44:37;12.57;;;6.38;;
75073;SDS011;63652;51.526;5.080;2023-02-07T02:47:07;14.93;;;7.30;;
75073;SDS011;63652;51.526;5.080;2023-02-07T02:49:33;12.60;;;6.70;;
75073;SDS011;63652;51.526;5.080;2023-02-07T02:52:00;11.45;;;4.82;;
75073;SDS011;63652;51.526;5.080;2023-02-07T02:54:26;12.15;;;5.32;;
75073;SDS011;63652;51.526;5.080;2023-02-07T02:56:56;8.13;;;4.88;;
75073;SDS011;63652;51.526;5.080;2023-02-07T02:59:30;18.75;;;6.18;;
75073;SDS011;63652;51.526;5.080;2023-02-07T03:05:28;11.90;;;5.22;;
75073;SDS011;63652;51.526;5.080;2023-02-07T03:07:47;12.15;;;6.10;;
75073;SDS011;63652;51.526;5.080;2023-02-07T03:10:30;14.07;;;6.63;;
75073;SDS011;63652;51.526;5.080;2023-02-07T03:13:12;16.67;;;6.50;;
75073;SDS011;63652;51.526;5.080;2023-02-07T03:15:45;13.55;;;6.60;;
75073;SDS011;63652;51.526;5.080;2023-02-07T03:18:17;17.48;;;7.70;;
75073;SDS011;63652;51.526;5.080;2023-02-07T03:20:46;18.20;;;8.13;;
75073;SDS011;63652;51.526;5.080;2023-02-07T03:23:14;20.02;;;8.70;;
75073;SDS011;63652;51.526;5.080;2023-02-07T03:25:40;20.30;;;10.32;;
75073;SDS011;63652;51.526;5.080;2023-02-07T03:28:07;28.27;;;11.52;;
75073;SDS011;63652;51.526;5.080;2023-02-07T03:30:33;21.75;;;10.15;;
75073;SDS011;63652;51.526;5.080;2023-02-07T03:33:00;30.15;;;11.50;;
75073;SDS011;63652;51.526;5.080;2023-02-07T03:38:06;34.92;;;13.05;;
75073;SDS011;63652;51.526;5.080;2023-02-07T03:40:35;37.03;;;14.00;;
75073;SDS011;63652;51.526;5.080;2023-02-07T03:45:30;33.10;;;15.15;;
75073;SDS011;63652;51.526;5.080;2023-02-07T03:47:55;37.55;;;14.25;;
75073;SDS011;63652;51.526;5.080;2023-02-07T03:50:21;53.33;;;14.75;;
75073;SDS011;63652;51.526;5.080;2023-02-07T03:52:46;38.10;;;15.35;;
75073;SDS011;63652;51.526;5.080;2023-02-07T03:55:11;48.72;;;16.45;;
75073;SDS011;63652;51.526;5.080;2023-02-07T03:57:37;40.85;;;15.43;;
75073;SDS011;63652;51.526;5.080;2023-02-07T04:00:03;44.72;;;17.23;;
75073;SDS011;63652;51.526;5.080;2023-02-07T04:02:29;37.20;;;15.30;;
75073;SDS011;63652;51.526;5.080;2023-02-07T04:04:55;35.85;;;15.88;;
75073;SDS011;63652;51.526;5.080;2023-02-07T04:07:20;47.95;;;17.23;;
75073;SDS011;63652;51.526;5.080;2023-02-07T04:09:45;50.28;;;15.57;;
75073;SDS011;63652;51.526;5.080;2023-02-07T04:12:13;46.53;;;15.45;;
75073;SDS011;63652;51.526;5.080;2023-02-07T04:14:39;69.18;;;17.77;;
75073;SDS011;63652;51.526;5.080;2023-02-07T04:17:04;55.00;;;17.05;;
75073;SDS011;63652;51.526;5.080;2023-02-07T04:19:30;48.03;;;18.08;;
75073;SDS011;63652;51.526;5.080;2023-02-07T04:21:55;37.60;;;14.90;;
75073;SDS011;63652;51.526;5.080;2023-02-07T04:24:20;34.30;;;15.38;;
75073;SDS011;63652;51.526;5.080;2023-02-07T04:26:46;27.02;;;13.32;;
75073;SDS011;63652;51.526;5.080;2023-02-07T04:29:11;48.53;;;14.15;;
75073;SDS011;63652;51.526;5.080;2023-02-07T04:31:37;33.63;;;13.55;;
75073;SDS011;63652;51.526;5.080;2023-02-07T04:34:02;30.98;;;12.82;;
75073;SDS011;63652;51.526;5.080;2023-02-07T04:36:28;45.67;;;14.82;;
75073;SDS011;63652;51.526;5.080;2023-02-07T04:38:55;30.40;;;14.82;;
75073;SDS011;63652;51.526;5.080;2023-02-07T04:41:20;34.90;;;14.95;;
75073;SDS011;63652;51.526;5.080;2023-02-07T04:43:45;34.67;;;13.73;;
75073;SDS011;63652;51.526;5.080;2023-02-07T04:46:11;31.48;;;15.25;;
75073;SDS011;63652;51.526;5.080;2023-02-07T04:48:36;37.70;;;14.00;;
75073;SDS011;63652;51.526;5.080;2023-02-07T04:51:02;31.63;;;15.20;;
75073;SDS011;63652;51.526;5.080;2023-02-07T04:53:28;26.95;;;13.23;;
75073;SDS011;63652;51.526;5.080;2023-02-07T04:55:53;26.50;;;13.50;;
75073;SDS011;63652;51.526;5.080;2023-02-07T04:58:19;34.53;;;13.00;;
75073;SDS011;63652;51.526;5.080;2023-02-07T05:00:45;30.67;;;14.10;;
75073;SDS011;63652;51.526;5.080;2023-02-07T05:03:11;38.53;;;13.32;;
75073;SDS011;63652;51.526;5.080;2023-02-07T05:05:37;31.92;;;14.75;;
75073;SDS011;63652;51.526;5.080;2023-02-07T05:08:03;37.75;;;16.73;;
75073;SDS011;63652;51.526;5.080;2023-02-07T05:10:29;30.92;;;13.57;;
75073;SDS011;63652;51.526;5.080;2023-02-07T05:12:54;28.33;;;13.75;;
75073;SDS011;63652;51.526;5.080;2023-02-07T05:15:20;30.73;;;14.00;;
75073;SDS011;63652;51.526;5.080;2023-02-07T05:17:45;38.90;;;15.40;;
75073;SDS011;63652;51.526;5.080;2023-02-07T05:20:10;39.05;;;14.18;;
75073;SDS011;63652;51.526;5.080;2023-02-07T05:22:36;35.30;;;15.00;;
75073;SDS011;63652;51.526;5.080;2023-02-07T05:25:01;36.08;;;14.95;;
75073;SDS011;63652;51.526;5.080;2023-02-07T05:27:27;32.55;;;15.20;;
75073;SDS011;63652;51.526;5.080;2023-02-07T05:29:52;35.20;;;14.55;;
75073;SDS011;63652;51.526;5.080;2023-02-07T05:32:18;31.45;;;14.70;;
75073;SDS011;63652;51.526;5.080;2023-02-07T05:35:02;31.05;;;12.68;;
75073;SDS011;63652;51.526;5.080;2023-02-07T05:37:27;34.33;;;15.05;;
75073;SDS011;63652;51.526;5.080;2023-02-07T05:39:53;34.13;;;14.93;;
75073;SDS011;63652;51.526;5.080;2023-02-07T05:42:18;39.58;;;14.70;;
75073;SDS011;63652;51.526;5.080;2023-02-07T05:44:44;36.03;;;14.05;;
75073;SDS011;63652;51.526;5.080;2023-02-07T05:47:09;30.25;;;14.73;;
75073;SDS011;63652;51.526;5.080;2023-02-07T05:49:35;30.23;;;13.18;;
75073;SDS011;63652;51.526;5.080;2023-02-07T05:52:01;34.40;;;13.52;;
75073;SDS011;63652;51.526;5.080;2023-02-07T05:54:26;39.25;;;14.88;;
75073;SDS011;63652;51.526;5.080;2023-02-07T05:56:52;31.25;;;14.38;;
75073;SDS011;63652;51.526;5.080;2023-02-07T05:59:17;34.95;;;15.50;;
75073;SDS011;63652;51.526;5.080;2023-02-07T06:01:43;32.85;;;13.85;;
75073;SDS011;63652;51.526;5.080;2023-02-07T06:04:08;32.83;;;13.25;;
75073;SDS011;63652;51.526;5.080;2023-02-07T06:06:33;31.65;;;13.38;;
75073;SDS011;63652;51.526;5.080;2023-02-07T06:08:59;32.70;;;14.52;;
75073;SDS011;63652;51.526;5.080;2023-02-07T06:11:24;34.40;;;14.00;;
75073;SDS011;63652;51.526;5.080;2023-02-07T06:13:50;41.30;;;14.95;;
75073;SDS011;63652;51.526;5.080;2023-02-07T06:16:15;31.92;;;14.18;;
75073;SDS011;63652;51.526;5.080;2023-02-07T06:18:40;32.13;;;13.93;;
75073;SDS011;63652;51.526;5.080;2023-02-07T06:21:06;35.70;;;14.90;;
75073;SDS011;63652;51.526;5.080;2023-02-07T06:23:31;55.30;;;15.18;;
75073;SDS011;63652;51.526;5.080;2023-02-07T06:25:56;40.05;;;14.60;;
75073;SDS011;63652;51.526;5.080;2023-02-07T06:28:22;75.07;;;14.95;;
75073;SDS011;63652;51.526;5.080;2023-02-07T06:30:49;41.58;;;14.55;;
75073;SDS011;63652;51.526;5.080;2023-02-07T06:33:15;47.25;;;14.00;;
75073;SDS011;63652;51.526;5.080;2023-02-07T06:35:40;47.35;;;14.32;;
75073;SDS011;63652;51.526;5.080;2023-02-07T06:38:11;37.78;;;13.73;;
75073;SDS011;63652;51.526;5.080;2023-02-07T06:40:39;35.30;;;13.43;;
75073;SDS011;63652;51.526;5.080;2023-02-07T06:43:05;41.42;;;13.02;;
75073;SDS011;63652;51.526;5.080;2023-02-07T06:45:30;34.88;;;13.82;;
75073;SDS011;63652;51.526;5.080;2023-02-07T06:47:55;34.60;;;13.70;;
75073;SDS011;63652;51.526;5.080;2023-02-07T06:50:21;29.98;;;12.60;;
75073;SDS011;63652;51.526;5.080;2023-02-07T06:52:46;29.35;;;13.98;;
75073;SDS011;63652;51.526;5.080;2023-02-07T06:55:12;46.75;;;14.13;;
75073;SDS011;63652;51.526;5.080;2023-02-07T06:57:37;30.35;;;14.00;;
75073;SDS011;63652;51.526;5.080;2023-02-07T07:00:03;35.65;;;13.85;;
75073;SDS011;63652;51.526;5.080;2023-02-07T07:02:29;33.95;;;14.45;;
75073;SDS011;63652;51.526;5.080;2023-02-07T07:04:54;37.08;;;13.90;;
75073;SDS011;63652;51.526;5.080;2023-02-07T07:07:20;26.25;;;11.70;;
75073;SDS011;63652;51.526;5.080;2023-02-07T07:09:45;47.25;;;13.88;;
75073;SDS011;63652;51.526;5.080;2023-02-07T07:12:10;42.90;;;13.27;;
75073;SDS011;63652;51.526;5.080;2023-02-07T07:14:36;34.00;;;14.00;;
75073;SDS011;63652;51.526;5.080;2023-02-07T07:17:02;41.65;;;14.07;;
75073;SDS011;63652;51.526;5.080;2023-02-07T07:19:27;40.17;;;15.45;;
75073;SDS011;63652;51.526;5.080;2023-02-07T07:21:52;58.80;;;15.55;;
75073;SDS011;63652;51.526;5.080;2023-02-07T07:24:19;33.53;;;14.27;;
75073;SDS011;63652;51.526;5.080;2023-02-07T07:26:45;30.60;;;13.77;;
75073;SDS011;63652;51.526;5.080;2023-02-07T07:29:11;29.83;;;12.73;;
75073;SDS011;63652;51.526;5.080;2023-02-07T07:31:36;29.63;;;12.02;;
75073;SDS011;63652;51.526;5.080;2023-02-07T07:34:20;30.35;;;12.25;;
75073;SDS011;63652;51.526;5.080;2023-02-07T07:36:45;38.00;;;11.48;;
75073;SDS011;63652;51.526;5.080;2023-02-07T07:39:11;40.78;;;12.27;;
75073;SDS011;63652;51.526;5.080;2023-02-07T07:41:37;42.47;;;12.65;;
75073;SDS011;63652;51.526;5.080;2023-02-07T07:44:02;62.22;;;14.40;;
75073;SDS011;63652;51.526;5.080;2023-02-07T07:46:28;45.50;;;12.80;;
75073;SDS011;63652;51.526;5.080;2023-02-07T07:48:53;36.95;;;11.63;;
75073;SDS011;63652;51.526;5.080;2023-02-07T07:51:18;25.42;;;12.38;;
75073;SDS011;63652;51.526;5.080;2023-02-07T07:53:44;26.52;;;13.85;;
75073;SDS011;63652;51.526;5.080;2023-02-07T07:56:09;29.00;;;13.57;;
75073;SDS011;63652;51.526;5.080;2023-02-07T07:58:35;49.42;;;14.55;;
75073;SDS011;63652;51.526;5.080;2023-02-07T08:01:00;29.23;;;12.30;;
75073;SDS011;63652;51.526;5.080;2023-02-07T08:03:25;37.88;;;13.38;;
75073;SDS011;63652;51.526;5.080;2023-02-07T08:05:51;47.03;;;13.98;;
75073;SDS011;63652;51.526;5.080;2023-02-07T08:08:16;34.10;;;13.50;;
75073;SDS011;63652;51.526;5.080;2023-02-07T08:10:43;43.50;;;14.50;;
75073;SDS011;63652;51.526;5.080;2023-02-07T08:13:09;37.10;;;13.63;;
75073;SDS011;63652;51.526;5.080;2023-02-07T08:15:35;32.45;;;13.60;;
75073;SDS011;63652;51.526;5.080;2023-02-07T08:18:00;42.67;;;15.25;;
75073;SDS011;63652;51.526;5.080;2023-02-07T08:20:26;29.60;;;12.32;;
75073;SDS011;63652;51.526;5.080;2023-02-07T08:22:51;30.20;;;12.00;;
75073;SDS011;63652;51.526;5.080;2023-02-07T08:25:17;24.48;;;11.35;;
75073;SDS011;63652;51.526;5.080;2023-02-07T08:27:42;27.83;;;11.68;;
75073;SDS011;63652;51.526;5.080;2023-02-07T08:30:08;27.45;;;11.48;;
75073;SDS011;63652;51.526;5.080;2023-02-07T08:32:35;24.23;;;10.73;;
75073;SDS011;63652;51.526;5.080;2023-02-07T08:35:01;24.80;;;11.52;;
75073;SDS011;63652;51.526;5.080;2023-02-07T08:37:26;29.45;;;12.98;;
75073;SDS011;63652;51.526;5.080;2023-02-07T08:39:52;26.70;;;11.45;;
75073;SDS011;63652;51.526;5.080;2023-02-07T08:42:18;22.33;;;11.27;;
75073;SDS011;63652;51.526;5.080;2023-02-07T08:44:45;23.35;;;11.43;;
75073;SDS011;63652;51.526;5.080;2023-02-07T08:47:13;24.48;;;12.40;;
75073;SDS011;63652;51.526;5.080;2023-02-07T08:49:39;28.33;;;11.95;;
75073;SDS011;63652;51.526;5.080;2023-02-07T08:52:05;25.45;;;11.68;;
75073;SDS011;63652;51.526;5.080;2023-02-07T08:54:30;22.63;;;10.93;;
75073;SDS011;63652;51.526;5.080;2023-02-07T08:56:55;25.38;;;11.20;;
75073;SDS011;63652;51.526;5.080;2023-02-07T08:59:21;24.52;;;11.82;;
75073;SDS011;63652;51.526;5.080;2023-02-07T09:01:46;26.38;;;11.50;;
75073;SDS011;63652;51.526;5.080;2023-02-07T09:04:11;19.50;;;9.60;;
75073;SDS011;63652;51.526;5.080;2023-02-07T09:06:37;25.30;;;11.75;;
75073;SDS011;63652;51.526;5.080;2023-02-07T09:09:03;24.67;;;11.63;;
75073;SDS011;63652;51.526;5.080;2023-02-07T09:11:28;26.73;;;12.52;;
75073;SDS011;63652;51.526;5.080;2023-02-07T09:13:54;28.77;;;13.52;;
75073;SDS011;63652;51.526;5.080;2023-02-07T09:16:19;28.20;;;12.90;;
75073;SDS011;63652;51.526;5.080;2023-02-07T09:18:47;29.80;;;12.90;;
75073;SDS011;63652;51.526;5.080;2023-02-07T09:21:12;29.95;;;14.63;;
75073;SDS011;63652;51.526;5.080;2023-02-07T09:23:38;30.40;;;14.45;;
75073;SDS011;63652;51.526;5.080;2023-02-07T09:26:04;31.85;;;14.10;;
75073;SDS011;63652;51.526;5.080;2023-02-07T09:28:30;28.23;;;13.50;;
75073;SDS011;63652;51.526;5.080;2023-02-07T09:30:56;28.73;;;13.23;;
75073;SDS011;63652;51.526;5.080;2023-02-07T09:33:22;27.65;;;12.30;;
75073;SDS011;63652;51.526;5.080;2023-02-07T09:35:47;28.13;;;11.50;;
75073;SDS011;63652;51.526;5.080;2023-02-07T09:38:18;24.27;;;12.48;;
75073;SDS011;63652;51.526;5.080;2023-02-07T09:40:45;27.30;;;11.63;;
75073;SDS011;63652;51.526;5.080;2023-02-07T09:43:25;26.15;;;12.02;;
75073;SDS011;63652;51.526;5.080;2023-02-07T09:45:56;28.08;;;12.55;;
75073;SDS011;63652;51.526;5.080;2023-02-07T09:48:30;25.33;;;12.57;;
75073;SDS011;63652;51.526;5.080;2023-02-07T09:56:08;25.33;;;11.70;;
75073;SDS011;63652;51.526;5.080;2023-02-07T10:01:16;24.83;;;12.52;;
75073;SDS011;63652;51.526;5.080;2023-02-07T10:04:05;22.58;;;11.90;;
75073;SDS011;63652;51.526;5.080;2023-02-07T10:06:52;23.52;;;12.30;;
75073;SDS011;63652;51.526;5.080;2023-02-07T10:09:31;21.23;;;11.65;;
75073;SDS011;63652;51.526;5.080;2023-02-07T10:12:24;27.65;;;13.35;;
75073;SDS011;63652;51.526;5.080;2023-02-07T10:23:34;21.40;;;10.90;;
75073;SDS011;63652;51.526;5.080;2023-02-07T10:31:38;21.77;;;10.50;;
75073;SDS011;63652;51.526;5.080;2023-02-07T10:36:44;22.38;;;12.40;;
75073;SDS011;63652;51.526;5.080;2023-02-07T10:39:13;22.60;;;11.00;;
75073;SDS011;63652;51.526;5.080;2023-02-07T10:41:42;22.73;;;11.13;;
75073;SDS011;63652;51.526;5.080;2023-02-07T10:44:11;22.55;;;10.48;;
75073;SDS011;63652;51.526;5.080;2023-02-07T10:46:39;22.60;;;11.32;;
75073;SDS011;63652;51.526;5.080;2023-02-07T10:49:07;22.73;;;10.98;;
75073;SDS011;63652;51.526;5.080;2023-02-07T10:51:38;23.27;;;11.45;;
75073;SDS011;63652;51.526;5.080;2023-02-07T10:56:40;19.25;;;9.82;;
75073;SDS011;63652;51.526;5.080;2023-02-07T11:07:24;19.45;;;9.50;;
75073;SDS011;63652;51.526;5.080;2023-02-07T11:09:50;18.10;;;10.57;;
75073;SDS011;63652;51.526;5.080;2023-02-07T11:12:19;22.27;;;10.60;;
75073;SDS011;63652;51.526;5.080;2023-02-07T11:15:00;20.75;;;10.13;;
75073;SDS011;63652;51.526;5.080;2023-02-07T11:17:26;18.35;;;8.23;;
75073;SDS011;63652;51.526;5.080;2023-02-07T11:19:52;17.05;;;8.82;;
75073;SDS011;63652;51.526;5.080;2023-02-07T11:22:19;21.27;;;10.57;;
75073;SDS011;63652;51.526;5.080;2023-02-07T11:24:46;20.67;;;9.93;;
75073;SDS011;63652;51.526;5.080;2023-02-07T11:27:15;17.50;;;9.43;;
75073;SDS011;63652;51.526;5.080;2023-02-07T11:29:43;18.77;;;9.68;;
75073;SDS011;63652;51.526;5.080;2023-02-07T11:32:14;16.88;;;8.60;;
75073;SDS011;63652;51.526;5.080;2023-02-07T11:37:27;16.50;;;9.82;;
75073;SDS011;63652;51.526;5.080;2023-02-07T11:39:55;12.43;;;7.00;;
75073;SDS011;63652;51.526;5.080;2023-02-07T11:42:24;17.60;;;8.95;;
75073;SDS011;63652;51.526;5.080;2023-02-07T11:44:55;14.15;;;8.25;;
75073;SDS011;63652;51.526;5.080;2023-02-07T11:47:24;15.30;;;8.25;;
75073;SDS011;63652;51.526;5.080;2023-02-07T11:50:02;15.55;;;8.63;;
75073;SDS011;63652;51.526;5.080;2023-02-07T11:52:30;15.85;;;7.88;;
75073;SDS011;63652;51.526;5.080;2023-02-07T11:54:57;14.38;;;7.68;;
75073;SDS011;63652;51.526;5.080;2023-02-07T11:57:26;16.95;;;6.88;;
75073;SDS011;63652;51.526;5.080;2023-02-07T12:02:30;13.43;;;7.43;;
75073;SDS011;63652;51.526;5.080;2023-02-07T12:05:07;16.60;;;7.15;;
75073;SDS011;63652;51.526;5.080;2023-02-07T12:07:43;13.02;;;6.18;;
75073;SDS011;63652;51.526;5.080;2023-02-07T12:10:22;11.02;;;6.38;;
75073;SDS011;63652;51.526;5.080;2023-02-07T12:13:03;12.98;;;7.30;;
75073;SDS011;63652;51.526;5.080;2023-02-07T12:15:36;10.77;;;5.72;;
75073;SDS011;63652;51.526;5.080;2023-02-07T12:18:06;12.50;;;6.63;;
75073;SDS011;63652;51.526;5.080;2023-02-07T12:20:40;10.18;;;5.68;;
75073;SDS011;63652;51.526;5.080;2023-02-07T12:23:33;10.30;;;4.30;;
75073;SDS011;63652;51.526;5.080;2023-02-07T12:26:14;12.07;;;5.68;;
75073;SDS011;63652;51.526;5.080;2023-02-07T12:31:30;9.52;;;5.20;;
75073;SDS011;63652;51.526;5.080;2023-02-07T12:33:59;8.90;;;4.72;;
75073;SDS011;63652;51.526;5.080;2023-02-07T12:36:34;10.02;;;5.07;;
75073;SDS011;63652;51.526;5.080;2023-02-07T12:42:06;9.18;;;6.00;;
75073;SDS011;63652;51.526;5.080;2023-02-07T12:44:45;10.27;;;5.28;;
75073;SDS011;63652;51.526;5.080;2023-02-07T12:55:51;9.70;;;5.00;;
75073;SDS011;63652;51.526;5.080;2023-02-07T12:58:48;10.32;;;4.80;;
75073;SDS011;63652;51.526;5.080;2023-02-07T13:01:39;8.68;;;4.68;;
75073;SDS011;63652;51.526;5.080;2023-02-07T13:09:33;10.48;;;4.57;;
75073;SDS011;63652;51.526;5.080;2023-02-07T13:12:28;10.30;;;6.03;;
75073;SDS011;63652;51.526;5.080;2023-02-07T13:18:18;8.55;;;4.93;;
75073;SDS011;63652;51.526;5.080;2023-02-07T13:23:39;9.88;;;5.03;;
75073;SDS011;63652;51.526;5.080;2023-02-07T13:26:13;9.82;;;5.40;;
75073;SDS011;63652;51.526;5.080;2023-02-07T13:28:54;8.82;;;4.82;;
75073;SDS011;63652;51.526;5.080;2023-02-07T13:31:44;8.77;;;4.85;;
75073;SDS011;63652;51.526;5.080;2023-02-07T13:34:20;7.68;;;4.72;;
75073;SDS011;63652;51.526;5.080;2023-02-07T13:36:48;10.55;;;5.05;;
75073;SDS011;63652;51.526;5.080;2023-02-07T13:42:05;12.77;;;5.47;;
75073;SDS011;63652;51.526;5.080;2023-02-07T13:44:56;7.47;;;4.85;;
75073;SDS011;63652;51.526;5.080;2023-02-07T13:50:35;9.65;;;5.40;;
75073;SDS011;63652;51.526;5.080;2023-02-07T13:55:37;8.50;;;3.92;;
75073;SDS011;63652;51.526;5.080;2023-02-07T13:58:07;8.73;;;5.22;;
75073;SDS011;63652;51.526;5.080;2023-02-07T14:01:17;10.68;;;4.63;;
75073;SDS011;63652;51.526;5.080;2023-02-07T14:03:46;8.93;;;4.82;;
75073;SDS011;63652;51.526;5.080;2023-02-07T14:06:24;12.23;;;4.60;;
75073;SDS011;63652;51.526;5.080;2023-02-07T14:09:02;11.15;;;5.07;;
75073;SDS011;63652;51.526;5.080;2023-02-07T14:14:15;10.80;;;5.00;;
75073;SDS011;63652;51.526;5.080;2023-02-07T14:16:54;10.05;;;4.78;;
75073;SDS011;63652;51.526;5.080;2023-02-07T14:20:17;6.80;;;4.55;;
75073;SDS011;63652;51.526;5.080;2023-02-07T14:29:54;11.15;;;5.28;;
75073;SDS011;63652;51.526;5.080;2023-02-07T14:32:39;8.65;;;4.68;;
75073;SDS011;63652;51.526;5.080;2023-02-07T14:37:49;8.27;;;4.80;;
75073;SDS011;63652;51.526;5.080;2023-02-07T14:40:27;7.25;;;4.10;;
75073;SDS011;63652;51.526;5.080;2023-02-07T14:43:04;10.23;;;4.70;;
75073;SDS011;63652;51.526;5.080;2023-02-07T14:45:34;9.68;;;5.32;;
75073;SDS011;63652;51.526;5.080;2023-02-07T14:48:00;7.22;;;4.20;;
75073;SDS011;63652;51.526;5.080;2023-02-07T14:50:28;11.27;;;4.38;;
75073;SDS011;63652;51.526;5.080;2023-02-07T14:52:59;6.82;;;4.47;;
75073;SDS011;63652;51.526;5.080;2023-02-07T14:55:27;9.23;;;4.63;;
75073;SDS011;63652;51.526;5.080;2023-02-07T15:03:15;7.90;;;4.15;;
75073;SDS011;63652;51.526;5.080;2023-02-07T15:05:49;9.00;;;4.28;;
75073;SDS011;63652;51.526;5.080;2023-02-07T15:08:22;7.88;;;4.15;;
75073;SDS011;63652;51.526;5.080;2023-02-07T15:10:56;7.07;;;4.05;;
75073;SDS011;63652;51.526;5.080;2023-02-07T15:18:39;8.38;;;4.43;;
75073;SDS011;63652;51.526;5.080;2023-02-07T15:21:16;7.78;;;4.13;;
75073;SDS011;63652;51.526;5.080;2023-02-07T15:23:43;8.15;;;4.70;;
75073;SDS011;63652;51.526;5.080;2023-02-07T15:28:41;9.57;;;4.68;;
75073;SDS011;63652;51.526;5.080;2023-02-07T15:34:10;8.18;;;4.57;;
75073;SDS011;63652;51.526;5.080;2023-02-07T15:36:44;8.70;;;4.45;;
75073;SDS011;63652;51.526;5.080;2023-02-07T15:39:18;8.93;;;4.78;;
75073;SDS011;63652;51.526;5.080;2023-02-07T15:41:45;8.35;;;4.22;;
75073;SDS011;63652;51.526;5.080;2023-02-07T15:52:48;9.75;;;4.50;;
75073;SDS011;63652;51.526;5.080;2023-02-07T15:55:23;9.48;;;4.13;;
75073;SDS011;63652;51.526;5.080;2023-02-07T15:57:49;9.25;;;4.68;;
75073;SDS011;63652;51.526;5.080;2023-02-07T16:00:48;7.15;;;4.40;;
75073;SDS011;63652;51.526;5.080;2023-02-07T16:03:11;8.13;;;4.55;;
75073;SDS011;63652;51.526;5.080;2023-02-07T16:05:41;8.48;;;4.57;;
75073;SDS011;63652;51.526;5.080;2023-02-07T16:08:29;9.30;;;4.90;;
75073;SDS011;63652;51.526;5.080;2023-02-07T16:16:38;11.00;;;5.38;;
75073;SDS011;63652;51.526;5.080;2023-02-07T16:21:34;9.48;;;4.88;;
75073;SDS011;63652;51.526;5.080;2023-02-07T16:24:04;9.98;;;5.20;;
75073;SDS011;63652;51.526;5.080;2023-02-07T16:26:31;8.45;;;5.05;;
75073;SDS011;63652;51.526;5.080;2023-02-07T16:28:57;9.70;;;5.43;;
75073;SDS011;63652;51.526;5.080;2023-02-07T16:31:22;10.73;;;6.05;;
75073;SDS011;63652;51.526;5.080;2023-02-07T16:33:48;10.25;;;5.80;;
75073;SDS011;63652;51.526;5.080;2023-02-07T16:36:14;8.60;;;5.22;;
75073;SDS011;63652;51.526;5.080;2023-02-07T16:38:40;10.23;;;4.75;;
75073;SDS011;63652;51.526;5.080;2023-02-07T16:41:08;9.57;;;5.45;;
75073;SDS011;63652;51.526;5.080;2023-02-07T16:43:39;11.52;;;5.65;;
75073;SDS011;63652;51.526;5.080;2023-02-07T16:46:06;10.35;;;5.65;;
75073;SDS011;63652;51.526;5.080;2023-02-07T16:48:31;10.23;;;5.35;;
75073;SDS011;63652;51.526;5.080;2023-02-07T16:50:57;10.85;;;5.90;;
75073;SDS011;63652;51.526;5.080;2023-02-07T16:53:23;9.75;;;5.50;;
75073;SDS011;63652;51.526;5.080;2023-02-07T16:55:50;14.10;;;6.55;;
75073;SDS011;63652;51.526;5.080;2023-02-07T16:58:34;10.88;;;6.30;;
75073;SDS011;63652;51.526;5.080;2023-02-07T17:00:59;10.80;;;6.22;;
75073;SDS011;63652;51.526;5.080;2023-02-07T17:03:26;12.38;;;6.78;;
75073;SDS011;63652;51.526;5.080;2023-02-07T17:05:52;12.38;;;6.78;;
75073;SDS011;63652;51.526;5.080;2023-02-07T17:08:18;11.85;;;6.35;;
75073;SDS011;63652;51.526;5.080;2023-02-07T17:10:50;11.13;;;6.15;;
75073;SDS011;63652;51.526;5.080;2023-02-07T17:13:18;12.85;;;7.10;;